sensor_id;sensor_type;location;lat;lon;timestamp;P1;durP1;ratioP1;P2;durP2;ratioP2
15504;SDS011;7854;52.184;5.942;2023-08-12T00:04:21;7;;;5;;
15504;SDS011;7854;52.184;5.942;2023-08-12T00:04:21;6;;;6;;
15504;SDS011;7854;52.184;5.942;2023-08-12T00:04:45;7;;;6;;
15504;SDS011;7854;52.184;5.942;2023-08-12T00:07:00;6;;;4;;
15504;SDS011;7854;52.184;5.942;2023-08-12T00:09:15;6;;;5;;
15504;SDS011;7854;52.184;5.942;2023-08-12T00:11:29;6;;;5;;
15504;SDS011;7854;52.184;5.942;2023-08-12T00:13:43;6;;;5;;
15504;SDS011;7854;52.184;5.942;2023-08-12T00:15:58;7;;;6;;
15504;SDS011;7854;52.184;5.942;2023-08-12T00:18:12;7;;;6;;
15504;SDS011;7854;52.184;5.942;2023-08-12T00:20:26;6;;;5;;
15504;SDS011;7854;52.184;5.942;2023-08-12T00:22:41;4;;;4;;
15504;SDS011;7854;52.184;5.942;2023-08-12T00:24:55;13;;;5;;
15504;SDS011;7854;52.184;5.942;2023-08-12T00:27:10;4;;;4;;
15504;SDS011;7854;52.184;5.942;2023-08-12T00:29:25;5;;;5;;
15504;SDS011;7854;52.184;5.942;2023-08-12T00:31:39;5;;;4;;
15504;SDS011;7854;52.184;5.942;2023-08-12T00:33:54;6;;;4;;
15504;SDS011;7854;52.184;5.942;2023-08-12T00:36:08;4;;;4;;
15504;SDS011;7854;52.184;5.942;2023-08-12T00:38:22;6;;;5;;
15504;SDS011;7854;52.184;5.942;2023-08-12T00:40:37;7;;;6;;
15504;SDS011;7854;52.184;5.942;2023-08-12T00:42:51;6;;;5;;
15504;SDS011;7854;52.184;5.942;2023-08-12T00:45:08;8;;;7;;
15504;SDS011;7854;52.184;5.942;2023-08-12T00:47:20;5;;;5;;
15504;SDS011;7854;52.184;5.942;2023-08-12T00:49:35;6;;;5;;
15504;SDS011;7854;52.184;5.942;2023-08-12T00:51:49;6;;;6;;
15504;SDS011;7854;52.184;5.942;2023-08-12T00:54:04;7;;;7;;
15504;SDS011;7854;52.184;5.942;2023-08-12T00:56:18;7;;;6;;
15504;SDS011;7854;52.184;5.942;2023-08-12T00:58:32;7;;;6;;
15504;SDS011;7854;52.184;5.942;2023-08-12T01:00:47;7;;;6;;
15504;SDS011;7854;52.184;5.942;2023-08-12T01:03:01;7;;;7;;
15504;SDS011;7854;52.184;5.942;2023-08-12T01:05:15;7;;;5;;
15504;SDS011;7854;52.184;5.942;2023-08-12T01:07:29;6;;;5;;
15504;SDS011;7854;52.184;5.942;2023-08-12T01:09:44;5;;;5;;
15504;SDS011;7854;52.184;5.942;2023-08-12T01:12:01;5;;;4;;
15504;SDS011;7854;52.184;5.942;2023-08-12T01:14:13;13;;;6;;
15504;SDS011;7854;52.184;5.942;2023-08-12T01:16:28;6;;;5;;
15504;SDS011;7854;52.184;5.942;2023-08-12T01:18:41;6;;;6;;
15504;SDS011;7854;52.184;5.942;2023-08-12T01:20:55;7;;;6;;
15504;SDS011;7854;52.184;5.942;2023-08-12T01:23:11;8;;;7;;
15504;SDS011;7854;52.184;5.942;2023-08-12T01:25:25;6;;;5;;
15504;SDS011;7854;52.184;5.942;2023-08-12T01:27:39;7;;;5;;
15504;SDS011;7854;52.184;5.942;2023-08-12T01:29:53;6;;;6;;
15504;SDS011;7854;52.184;5.942;2023-08-12T01:32:08;6;;;5;;
15504;SDS011;7854;52.184;5.942;2023-08-12T01:34:24;15;;;8;;
15504;SDS011;7854;52.184;5.942;2023-08-12T01:36:37;10;;;9;;
15504;SDS011;7854;52.184;5.942;2023-08-12T01:38:51;7;;;7;;
15504;SDS011;7854;52.184;5.942;2023-08-12T01:41:06;7;;;6;;
15504;SDS011;7854;52.184;5.942;2023-08-12T01:43:20;5;;;5;;
15504;SDS011;7854;52.184;5.942;2023-08-12T01:45:34;8;;;5;;
15504;SDS011;7854;52.184;5.942;2023-08-12T01:47:49;6;;;5;;
15504;SDS011;7854;52.184;5.942;2023-08-12T01:50:04;7;;;5;;
15504;SDS011;7854;52.184;5.942;2023-08-12T01:52:18;10;;;9;;
15504;SDS011;7854;52.184;5.942;2023-08-12T01:54:33;7;;;6;;
15504;SDS011;7854;52.184;5.942;2023-08-12T01:56:47;7;;;7;;
15504;SDS011;7854;52.184;5.942;2023-08-12T01:59:01;8;;;7;;
15504;SDS011;7854;52.184;5.942;2023-08-12T02:01:15;5;;;5;;
15504;SDS011;7854;52.184;5.942;2023-08-12T02:03:30;7;;;7;;
15504;SDS011;7854;52.184;5.942;2023-08-12T02:05:44;8;;;7;;
15504;SDS011;7854;52.184;5.942;2023-08-12T02:07:59;10;;;9;;
15504;SDS011;7854;52.184;5.942;2023-08-12T02:10:13;7;;;6;;
15504;SDS011;7854;52.184;5.942;2023-08-12T02:12:28;16;;;11;;
15504;SDS011;7854;52.184;5.942;2023-08-12T02:14:43;8;;;7;;
15504;SDS011;7854;52.184;5.942;2023-08-12T02:16:57;10;;;10;;
15504;SDS011;7854;52.184;5.942;2023-08-12T02:19:11;10;;;9;;
15504;SDS011;7854;52.184;5.942;2023-08-12T02:21:26;10;;;9;;
15504;SDS011;7854;52.184;5.942;2023-08-12T02:23:40;8;;;7;;
15504;SDS011;7854;52.184;5.942;2023-08-12T02:25:55;9;;;9;;
15504;SDS011;7854;52.184;5.942;2023-08-12T02:28:09;9;;;8;;
15504;SDS011;7854;52.184;5.942;2023-08-12T02:30:24;11;;;10;;
15504;SDS011;7854;52.184;5.942;2023-08-12T02:32:38;12;;;10;;
15504;SDS011;7854;52.184;5.942;2023-08-12T02:34:53;9;;;8;;
15504;SDS011;7854;52.184;5.942;2023-08-12T02:37:07;11;;;6;;
15504;SDS011;7854;52.184;5.942;2023-08-12T02:39:22;7;;;7;;
15504;SDS011;7854;52.184;5.942;2023-08-12T02:41:36;8;;;7;;
15504;SDS011;7854;52.184;5.942;2023-08-12T02:43:50;7;;;7;;
15504;SDS011;7854;52.184;5.942;2023-08-12T02:46:04;9;;;8;;
15504;SDS011;7854;52.184;5.942;2023-08-12T02:48:19;17;;;11;;
15504;SDS011;7854;52.184;5.942;2023-08-12T02:50:33;11;;;9;;
15504;SDS011;7854;52.184;5.942;2023-08-12T02:52:48;8;;;7;;
15504;SDS011;7854;52.184;5.942;2023-08-12T02:55:02;14;;;11;;
15504;SDS011;7854;52.184;5.942;2023-08-12T02:57:17;13;;;11;;
15504;SDS011;7854;52.184;5.942;2023-08-12T02:59:31;14;;;11;;
15504;SDS011;7854;52.184;5.942;2023-08-12T03:01:46;13;;;12;;
15504;SDS011;7854;52.184;5.942;2023-08-12T03:04:00;16;;;12;;
15504;SDS011;7854;52.184;5.942;2023-08-12T03:06:14;17;;;15;;
15504;SDS011;7854;52.184;5.942;2023-08-12T03:08:29;12;;;11;;
15504;SDS011;7854;52.184;5.942;2023-08-12T03:10:44;12;;;11;;
15504;SDS011;7854;52.184;5.942;2023-08-12T03:12:58;19;;;13;;
15504;SDS011;7854;52.184;5.942;2023-08-12T03:15:13;25;;;17;;
15504;SDS011;7854;52.184;5.942;2023-08-12T03:17:27;24;;;18;;
15504;SDS011;7854;52.184;5.942;2023-08-12T03:19:41;16;;;14;;
15504;SDS011;7854;52.184;5.942;2023-08-12T03:21:56;20;;;14;;
15504;SDS011;7854;52.184;5.942;2023-08-12T03:24:10;18;;;14;;
15504;SDS011;7854;52.184;5.942;2023-08-12T03:26:24;13;;;12;;
15504;SDS011;7854;52.184;5.942;2023-08-12T03:28:38;22;;;19;;
15504;SDS011;7854;52.184;5.942;2023-08-12T03:30:53;33;;;17;;
15504;SDS011;7854;52.184;5.942;2023-08-12T03:33:07;19;;;15;;
15504;SDS011;7854;52.184;5.942;2023-08-12T03:35:21;37;;;25;;
15504;SDS011;7854;52.184;5.942;2023-08-12T03:37:36;23;;;18;;
15504;SDS011;7854;52.184;5.942;2023-08-12T03:39:50;24;;;19;;
15504;SDS011;7854;52.184;5.942;2023-08-12T03:42:05;29;;;22;;
15504;SDS011;7854;52.184;5.942;2023-08-12T03:44:19;25;;;21;;
15504;SDS011;7854;52.184;5.942;2023-08-12T03:46:33;41;;;20;;
15504;SDS011;7854;52.184;5.942;2023-08-12T03:48:48;33;;;24;;
15504;SDS011;7854;52.184;5.942;2023-08-12T03:51:02;26;;;22;;
15504;SDS011;7854;52.184;5.942;2023-08-12T03:53:17;33;;;23;;
15504;SDS011;7854;52.184;5.942;2023-08-12T03:55:32;38;;;24;;
15504;SDS011;7854;52.184;5.942;2023-08-12T03:57:46;23;;;20;;
15504;SDS011;7854;52.184;5.942;2023-08-12T04:00:00;30;;;19;;
15504;SDS011;7854;52.184;5.942;2023-08-12T04:02:15;35;;;21;;
15504;SDS011;7854;52.184;5.942;2023-08-12T04:04:29;45;;;29;;
15504;SDS011;7854;52.184;5.942;2023-08-12T04:06:44;33;;;21;;
15504;SDS011;7854;52.184;5.942;2023-08-12T04:08:58;30;;;24;;
15504;SDS011;7854;52.184;5.942;2023-08-12T04:11:12;39;;;29;;
15504;SDS011;7854;52.184;5.942;2023-08-12T04:13:27;45;;;29;;
15504;SDS011;7854;52.184;5.942;2023-08-12T04:15:42;38;;;26;;
15504;SDS011;7854;52.184;5.942;2023-08-12T04:17:56;32;;;25;;
15504;SDS011;7854;52.184;5.942;2023-08-12T04:20:10;28;;;22;;
15504;SDS011;7854;52.184;5.942;2023-08-12T04:22:25;33;;;23;;
15504;SDS011;7854;52.184;5.942;2023-08-12T04:24:39;50;;;29;;
15504;SDS011;7854;52.184;5.942;2023-08-12T04:26:54;28;;;25;;
15504;SDS011;7854;52.184;5.942;2023-08-12T04:29:08;40;;;25;;
15504;SDS011;7854;52.184;5.942;2023-08-12T04:31:23;36;;;27;;
15504;SDS011;7854;52.184;5.942;2023-08-12T04:33:37;26;;;22;;
15504;SDS011;7854;52.184;5.942;2023-08-12T04:35:52;42;;;26;;
15504;SDS011;7854;52.184;5.942;2023-08-12T04:38:06;29;;;25;;
15504;SDS011;7854;52.184;5.942;2023-08-12T04:40:20;35;;;27;;
15504;SDS011;7854;52.184;5.942;2023-08-12T04:42:35;25;;;22;;
15504;SDS011;7854;52.184;5.942;2023-08-12T04:44:49;24;;;21;;
15504;SDS011;7854;52.184;5.942;2023-08-12T04:47:05;34;;;25;;
15504;SDS011;7854;52.184;5.942;2023-08-12T04:49:18;37;;;25;;
15504;SDS011;7854;52.184;5.942;2023-08-12T04:51:33;33;;;25;;
15504;SDS011;7854;52.184;5.942;2023-08-12T04:53:47;25;;;21;;
15504;SDS011;7854;52.184;5.942;2023-08-12T04:56:02;25;;;22;;
15504;SDS011;7854;52.184;5.942;2023-08-12T04:58:17;37;;;28;;
15504;SDS011;7854;52.184;5.942;2023-08-12T05:00:30;33;;;27;;
15504;SDS011;7854;52.184;5.942;2023-08-12T05:02:45;35;;;24;;
15504;SDS011;7854;52.184;5.942;2023-08-12T05:04:59;33;;;24;;
15504;SDS011;7854;52.184;5.942;2023-08-12T05:07:14;34;;;24;;
15504;SDS011;7854;52.184;5.942;2023-08-12T05:09:28;24;;;21;;
15504;SDS011;7854;52.184;5.942;2023-08-12T05:11:42;29;;;22;;
15504;SDS011;7854;52.184;5.942;2023-08-12T05:13:57;29;;;23;;
15504;SDS011;7854;52.184;5.942;2023-08-12T05:16:11;27;;;22;;
15504;SDS011;7854;52.184;5.942;2023-08-12T05:18:26;24;;;21;;
15504;SDS011;7854;52.184;5.942;2023-08-12T05:20:40;21;;;19;;
15504;SDS011;7854;52.184;5.942;2023-08-12T05:22:55;24;;;21;;
15504;SDS011;7854;52.184;5.942;2023-08-12T05:25:09;23;;;21;;
15504;SDS011;7854;52.184;5.942;2023-08-12T05:27:24;28;;;22;;
15504;SDS011;7854;52.184;5.942;2023-08-12T05:29:38;26;;;23;;
15504;SDS011;7854;52.184;5.942;2023-08-12T05:31:52;23;;;21;;
15504;SDS011;7854;52.184;5.942;2023-08-12T05:34:07;23;;;20;;
15504;SDS011;7854;52.184;5.942;2023-08-12T05:36:22;23;;;20;;
15504;SDS011;7854;52.184;5.942;2023-08-12T05:38:36;23;;;20;;
15504;SDS011;7854;52.184;5.942;2023-08-12T05:40:50;22;;;19;;
15504;SDS011;7854;52.184;5.942;2023-08-12T05:43:05;25;;;19;;
15504;SDS011;7854;52.184;5.942;2023-08-12T05:45:19;31;;;21;;
15504;SDS011;7854;52.184;5.942;2023-08-12T05:47:34;24;;;21;;
15504;SDS011;7854;52.184;5.942;2023-08-12T05:49:48;26;;;20;;
15504;SDS011;7854;52.184;5.942;2023-08-12T05:52:01;21;;;18;;
15504;SDS011;7854;52.184;5.942;2023-08-12T05:54:16;25;;;19;;
15504;SDS011;7854;52.184;5.942;2023-08-12T05:56:31;23;;;20;;
15504;SDS011;7854;52.184;5.942;2023-08-12T05:58:45;24;;;22;;
15504;SDS011;7854;52.184;5.942;2023-08-12T06:01:00;21;;;18;;
15504;SDS011;7854;52.184;5.942;2023-08-12T06:03:14;25;;;21;;
15504;SDS011;7854;52.184;5.942;2023-08-12T06:05:29;18;;;16;;
15504;SDS011;7854;52.184;5.942;2023-08-12T06:07:43;19;;;17;;
15504;SDS011;7854;52.184;5.942;2023-08-12T06:09:58;18;;;16;;
15504;SDS011;7854;52.184;5.942;2023-08-12T06:12:12;21;;;17;;
15504;SDS011;7854;52.184;5.942;2023-08-12T06:16:41;20;;;17;;
15504;SDS011;7854;52.184;5.942;2023-08-12T06:18:55;20;;;18;;
15504;SDS011;7854;52.184;5.942;2023-08-12T06:21:10;20;;;18;;
15504;SDS011;7854;52.184;5.942;2023-08-12T06:23:24;21;;;19;;
15504;SDS011;7854;52.184;5.942;2023-08-12T06:25:38;19;;;16;;
15504;SDS011;7854;52.184;5.942;2023-08-12T06:27:53;19;;;17;;
15504;SDS011;7854;52.184;5.942;2023-08-12T06:30:08;20;;;18;;
15504;SDS011;7854;52.184;5.942;2023-08-12T06:32:22;20;;;18;;
15504;SDS011;7854;52.184;5.942;2023-08-12T06:34:37;20;;;17;;
15504;SDS011;7854;52.184;5.942;2023-08-12T06:36:50;20;;;18;;
15504;SDS011;7854;52.184;5.942;2023-08-12T06:39:05;18;;;16;;
15504;SDS011;7854;52.184;5.942;2023-08-12T06:41:20;24;;;20;;
15504;SDS011;7854;52.184;5.942;2023-08-12T06:43:34;20;;;18;;
15504;SDS011;7854;52.184;5.942;2023-08-12T06:45:48;21;;;17;;
15504;SDS011;7854;52.184;5.942;2023-08-12T06:48:03;36;;;24;;
15504;SDS011;7854;52.184;5.942;2023-08-12T06:50:18;19;;;17;;
15504;SDS011;7854;52.184;5.942;2023-08-12T06:52:32;17;;;16;;
15504;SDS011;7854;52.184;5.942;2023-08-12T06:54:46;16;;;15;;
15504;SDS011;7854;52.184;5.942;2023-08-12T06:57:00;19;;;17;;
15504;SDS011;7854;52.184;5.942;2023-08-12T06:59:15;18;;;16;;
15504;SDS011;7854;52.184;5.942;2023-08-12T07:01:30;18;;;16;;
15504;SDS011;7854;52.184;5.942;2023-08-12T07:03:44;17;;;15;;
15504;SDS011;7854;52.184;5.942;2023-08-12T07:05:59;16;;;14;;
15504;SDS011;7854;52.184;5.942;2023-08-12T07:08:13;25;;;16;;
15504;SDS011;7854;52.184;5.942;2023-08-12T07:10:28;18;;;16;;
15504;SDS011;7854;52.184;5.942;2023-08-12T07:12:42;16;;;14;;
15504;SDS011;7854;52.184;5.942;2023-08-12T07:14:56;16;;;15;;
15504;SDS011;7854;52.184;5.942;2023-08-12T07:17:11;10;;;9;;
15504;SDS011;7854;52.184;5.942;2023-08-12T07:19:25;15;;;13;;
15504;SDS011;7854;52.184;5.942;2023-08-12T07:21:39;10;;;9;;
15504;SDS011;7854;52.184;5.942;2023-08-12T07:23:54;12;;;10;;
15504;SDS011;7854;52.184;5.942;2023-08-12T07:26:08;13;;;11;;
15504;SDS011;7854;52.184;5.942;2023-08-12T07:28:23;15;;;14;;
15504;SDS011;7854;52.184;5.942;2023-08-12T07:30:36;15;;;13;;
15504;SDS011;7854;52.184;5.942;2023-08-12T07:32:51;10;;;9;;
15504;SDS011;7854;52.184;5.942;2023-08-12T07:35:05;10;;;9;;
15504;SDS011;7854;52.184;5.942;2023-08-12T07:37:20;6;;;6;;
15504;SDS011;7854;52.184;5.942;2023-08-12T07:39:35;7;;;6;;
15504;SDS011;7854;52.184;5.942;2023-08-12T07:44:03;5;;;5;;
15504;SDS011;7854;52.184;5.942;2023-08-12T07:46:17;4;;;4;;
15504;SDS011;7854;52.184;5.942;2023-08-12T07:48:32;4;;;3;;
15504;SDS011;7854;52.184;5.942;2023-08-12T07:50:46;4;;;4;;
15504;SDS011;7854;52.184;5.942;2023-08-12T07:53:01;2;;;2;;
15504;SDS011;7854;52.184;5.942;2023-08-12T07:55:15;3;;;3;;
15504;SDS011;7854;52.184;5.942;2023-08-12T07:57:29;3;;;3;;
15504;SDS011;7854;52.184;5.942;2023-08-12T07:59:44;3;;;3;;
15504;SDS011;7854;52.184;5.942;2023-08-12T08:01:59;4;;;4;;
15504;SDS011;7854;52.184;5.942;2023-08-12T08:04:13;3;;;3;;
15504;SDS011;7854;52.184;5.942;2023-08-12T08:06:27;3;;;3;;
15504;SDS011;7854;52.184;5.942;2023-08-12T08:08:42;6;;;3;;
15504;SDS011;7854;52.184;5.942;2023-08-12T08:10:56;6;;;3;;
15504;SDS011;7854;52.184;5.942;2023-08-12T08:13:11;3;;;2;;
15504;SDS011;7854;52.184;5.942;2023-08-12T08:15:25;7;;;3;;
15504;SDS011;7854;52.184;5.942;2023-08-12T08:17:39;3;;;2;;
15504;SDS011;7854;52.184;5.942;2023-08-12T08:19:54;3;;;3;;
15504;SDS011;7854;52.184;5.942;2023-08-12T08:22:09;3;;;3;;
15504;SDS011;7854;52.184;5.942;2023-08-12T08:24:23;3;;;3;;
15504;SDS011;7854;52.184;5.942;2023-08-12T08:26:37;2;;;2;;
15504;SDS011;7854;52.184;5.942;2023-08-12T08:28:52;3;;;3;;
15504;SDS011;7854;52.184;5.942;2023-08-12T08:31:06;8;;;3;;
15504;SDS011;7854;52.184;5.942;2023-08-12T08:33:20;3;;;3;;
15504;SDS011;7854;52.184;5.942;2023-08-12T08:35:35;3;;;3;;
15504;SDS011;7854;52.184;5.942;2023-08-12T08:37:49;2;;;2;;
15504;SDS011;7854;52.184;5.942;2023-08-12T08:40:04;3;;;3;;
15504;SDS011;7854;52.184;5.942;2023-08-12T08:42:18;4;;;3;;
15504;SDS011;7854;52.184;5.942;2023-08-12T08:44:32;2;;;2;;
15504;SDS011;7854;52.184;5.942;2023-08-12T08:46:47;2;;;2;;
15504;SDS011;7854;52.184;5.942;2023-08-12T08:49:01;2;;;2;;
15504;SDS011;7854;52.184;5.942;2023-08-12T08:51:17;3;;;2;;
15504;SDS011;7854;52.184;5.942;2023-08-12T08:53:30;1;;;1;;
15504;SDS011;7854;52.184;5.942;2023-08-12T08:55:44;2;;;2;;
15504;SDS011;7854;52.184;5.942;2023-08-12T08:57:59;2;;;2;;
15504;SDS011;7854;52.184;5.942;2023-08-12T09:00:14;2;;;2;;
15504;SDS011;7854;52.184;5.942;2023-08-12T09:02:27;2;;;2;;
15504;SDS011;7854;52.184;5.942;2023-08-12T09:04:42;2;;;2;;
15504;SDS011;7854;52.184;5.942;2023-08-12T09:06:57;3;;;3;;
15504;SDS011;7854;52.184;5.942;2023-08-12T09:09:12;2;;;1;;
15504;SDS011;7854;52.184;5.942;2023-08-12T09:11:25;1;;;1;;
15504;SDS011;7854;52.184;5.942;2023-08-12T09:13:40;1;;;1;;
15504;SDS011;7854;52.184;5.942;2023-08-12T09:15:55;2;;;1;;
15504;SDS011;7854;52.184;5.942;2023-08-12T09:18:09;1;;;1;;
15504;SDS011;7854;52.184;5.942;2023-08-12T09:20:23;2;;;2;;
15504;SDS011;7854;52.184;5.942;2023-08-12T09:22:36;1;;;1;;
15504;SDS011;7854;52.184;5.942;2023-08-12T09:24:53;0;;;0;;
15504;SDS011;7854;52.184;5.942;2023-08-12T09:27:06;0;;;0;;
15504;SDS011;7854;52.184;5.942;2023-08-12T09:29:22;1;;;1;;
15504;SDS011;7854;52.184;5.942;2023-08-12T09:31:34;0;;;0;;
15504;SDS011;7854;52.184;5.942;2023-08-12T09:33:49;0;;;0;;
15504;SDS011;7854;52.184;5.942;2023-08-12T09:36:03;0;;;0;;
15504;SDS011;7854;52.184;5.942;2023-08-12T09:38:18;0;;;0;;
15504;SDS011;7854;52.184;5.942;2023-08-12T09:40:33;0;;;0;;
15504;SDS011;7854;52.184;5.942;2023-08-12T09:42:46;0;;;0;;
15504;SDS011;7854;52.184;5.942;2023-08-12T09:45:02;0;;;0;;
15504;SDS011;7854;52.184;5.942;2023-08-12T09:47:16;0;;;0;;
15504;SDS011;7854;52.184;5.942;2023-08-12T09:49:30;0;;;0;;
15504;SDS011;7854;52.184;5.942;2023-08-12T09:51:44;0;;;0;;
15504;SDS011;7854;52.184;5.942;2023-08-12T09:53:59;0;;;0;;
15504;SDS011;7854;52.184;5.942;2023-08-12T09:56:13;0;;;0;;
15504;SDS011;7854;52.184;5.942;2023-08-12T09:58:28;0;;;0;;
15504;SDS011;7854;52.184;5.942;2023-08-12T10:00:42;0;;;0;;
15504;SDS011;7854;52.184;5.942;2023-08-12T10:02:57;0;;;0;;
15504;SDS011;7854;52.184;5.942;2023-08-12T10:05:12;0;;;0;;
15504;SDS011;7854;52.184;5.942;2023-08-12T10:07:25;1;;;0;;
15504;SDS011;7854;52.184;5.942;2023-08-12T10:09:39;0;;;0;;
15504;SDS011;7854;52.184;5.942;2023-08-12T10:11:54;0;;;0;;
15504;SDS011;7854;52.184;5.942;2023-08-12T10:14:08;0;;;0;;
15504;SDS011;7854;52.184;5.942;2023-08-12T10:16:23;0;;;0;;
15504;SDS011;7854;52.184;5.942;2023-08-12T10:18:38;0;;;0;;
15504;SDS011;7854;52.184;5.942;2023-08-12T10:20:51;0;;;0;;
15504;SDS011;7854;52.184;5.942;2023-08-12T10:23:06;0;;;0;;
15504;SDS011;7854;52.184;5.942;2023-08-12T10:25:20;0;;;0;;
15504;SDS011;7854;52.184;5.942;2023-08-12T10:27:36;0;;;0;;
15504;SDS011;7854;52.184;5.942;2023-08-12T10:29:49;0;;;0;;
15504;SDS011;7854;52.184;5.942;2023-08-12T10:32:03;0;;;0;;
15504;SDS011;7854;52.184;5.942;2023-08-12T10:34:19;0;;;0;;
15504;SDS011;7854;52.184;5.942;2023-08-12T10:36:33;0;;;0;;
15504;SDS011;7854;52.184;5.942;2023-08-12T10:38:47;0;;;0;;
15504;SDS011;7854;52.184;5.942;2023-08-12T10:41:17;0;;;0;;
15504;SDS011;7854;52.184;5.942;2023-08-12T10:43:16;2;;;0;;
15504;SDS011;7854;52.184;5.942;2023-08-12T10:45:40;1;;;0;;
15504;SDS011;7854;52.184;5.942;2023-08-12T10:47:48;1;;;0;;
15504;SDS011;7854;52.184;5.942;2023-08-12T10:49:59;1;;;1;;
15504;SDS011;7854;52.184;5.942;2023-08-12T10:52:26;1;;;1;;
15504;SDS011;7854;52.184;5.942;2023-08-12T10:54:28;2;;;1;;
15504;SDS011;7854;52.184;5.942;2023-08-12T10:57:14;1;;;1;;
15504;SDS011;7854;52.184;5.942;2023-08-12T10:58:57;1;;;1;;
15504;SDS011;7854;52.184;5.942;2023-08-12T11:01:13;1;;;0;;
15504;SDS011;7854;52.184;5.942;2023-08-12T11:03:26;1;;;1;;
15504;SDS011;7854;52.184;5.942;2023-08-12T11:05:40;1;;;1;;
15504;SDS011;7854;52.184;5.942;2023-08-12T11:07:56;0;;;0;;
15504;SDS011;7854;52.184;5.942;2023-08-12T11:10:10;4;;;1;;
15504;SDS011;7854;52.184;5.942;2023-08-12T11:12:32;1;;;0;;
15504;SDS011;7854;52.184;5.942;2023-08-12T11:14:54;0;;;0;;
15504;SDS011;7854;52.184;5.942;2023-08-12T11:16:52;2;;;1;;
15504;SDS011;7854;52.184;5.942;2023-08-12T11:19:07;1;;;0;;
15504;SDS011;7854;52.184;5.942;2023-08-12T11:21:21;1;;;1;;
15504;SDS011;7854;52.184;5.942;2023-08-12T11:23:35;1;;;1;;
15504;SDS011;7854;52.184;5.942;2023-08-12T11:25:50;4;;;1;;
15504;SDS011;7854;52.184;5.942;2023-08-12T11:28:05;1;;;1;;
15504;SDS011;7854;52.184;5.942;2023-08-12T11:30:20;2;;;1;;
15504;SDS011;7854;52.184;5.942;2023-08-12T11:32:34;3;;;1;;
15504;SDS011;7854;52.184;5.942;2023-08-12T11:37:02;3;;;1;;
15504;SDS011;7854;52.184;5.942;2023-08-12T11:39:17;3;;;1;;
15504;SDS011;7854;52.184;5.942;2023-08-12T11:41:33;1;;;0;;
15504;SDS011;7854;52.184;5.942;2023-08-12T11:43:46;2;;;1;;
15504;SDS011;7854;52.184;5.942;2023-08-12T11:46:00;2;;;1;;
15504;SDS011;7854;52.184;5.942;2023-08-12T11:48:15;1;;;1;;
15504;SDS011;7854;52.184;5.942;2023-08-12T11:50:29;1;;;1;;
15504;SDS011;7854;52.184;5.942;2023-08-12T11:52:43;2;;;1;;
15504;SDS011;7854;52.184;5.942;2023-08-12T11:54:58;5;;;3;;
15504;SDS011;7854;52.184;5.942;2023-08-12T11:57:13;1;;;1;;
15504;SDS011;7854;52.184;5.942;2023-08-12T11:59:27;2;;;2;;
15504;SDS011;7854;52.184;5.942;2023-08-12T12:01:41;0;;;0;;
15504;SDS011;7854;52.184;5.942;2023-08-12T12:03:56;2;;;1;;
15504;SDS011;7854;52.184;5.942;2023-08-12T12:06:10;1;;;1;;
15504;SDS011;7854;52.184;5.942;2023-08-12T12:08:25;4;;;1;;
15504;SDS011;7854;52.184;5.942;2023-08-12T12:10:39;2;;;1;;
15504;SDS011;7854;52.184;5.942;2023-08-12T12:12:54;2;;;1;;
15504;SDS011;7854;52.184;5.942;2023-08-12T12:15:08;1;;;0;;
15504;SDS011;7854;52.184;5.942;2023-08-12T12:17:22;2;;;1;;
15504;SDS011;7854;52.184;5.942;2023-08-12T12:19:39;3;;;1;;
15504;SDS011;7854;52.184;5.942;2023-08-12T12:21:52;4;;;1;;
15504;SDS011;7854;52.184;5.942;2023-08-12T12:24:06;2;;;1;;
15504;SDS011;7854;52.184;5.942;2023-08-12T12:26:20;15;;;1;;
15504;SDS011;7854;52.184;5.942;2023-08-12T12:28:35;3;;;1;;
15504;SDS011;7854;52.184;5.942;2023-08-12T12:30:48;2;;;1;;
15504;SDS011;7854;52.184;5.942;2023-08-12T12:33:03;2;;;1;;
15504;SDS011;7854;52.184;5.942;2023-08-12T12:37:32;1;;;1;;
15504;SDS011;7854;52.184;5.942;2023-08-12T12:39:46;3;;;1;;
15504;SDS011;7854;52.184;5.942;2023-08-12T12:42:00;1;;;0;;
15504;SDS011;7854;52.184;5.942;2023-08-12T12:44:15;2;;;1;;
15504;SDS011;7854;52.184;5.942;2023-08-12T12:46:29;1;;;1;;
15504;SDS011;7854;52.184;5.942;2023-08-12T12:48:44;2;;;1;;
15504;SDS011;7854;52.184;5.942;2023-08-12T12:50:58;1;;;0;;
15504;SDS011;7854;52.184;5.942;2023-08-12T12:53:12;1;;;0;;
15504;SDS011;7854;52.184;5.942;2023-08-12T12:55:26;2;;;1;;
15504;SDS011;7854;52.184;5.942;2023-08-12T12:57:41;1;;;1;;
15504;SDS011;7854;52.184;5.942;2023-08-12T12:59:55;2;;;1;;
15504;SDS011;7854;52.184;5.942;2023-08-12T13:02:09;3;;;0;;
15504;SDS011;7854;52.184;5.942;2023-08-12T13:04:24;1;;;0;;
15504;SDS011;7854;52.184;5.942;2023-08-12T13:06:38;1;;;0;;
15504;SDS011;7854;52.184;5.942;2023-08-12T13:08:53;6;;;1;;
15504;SDS011;7854;52.184;5.942;2023-08-12T13:11:07;1;;;1;;
15504;SDS011;7854;52.184;5.942;2023-08-12T13:13:21;6;;;1;;
15504;SDS011;7854;52.184;5.942;2023-08-12T13:15:36;2;;;0;;
15504;SDS011;7854;52.184;5.942;2023-08-12T13:17:50;5;;;1;;
15504;SDS011;7854;52.184;5.942;2023-08-12T13:20:06;1;;;1;;
15504;SDS011;7854;52.184;5.942;2023-08-12T13:22:19;4;;;1;;
15504;SDS011;7854;52.184;5.942;2023-08-12T13:24:34;10;;;2;;
15504;SDS011;7854;52.184;5.942;2023-08-12T13:26:48;7;;;1;;
15504;SDS011;7854;52.184;5.942;2023-08-12T13:29:03;1;;;1;;
15504;SDS011;7854;52.184;5.942;2023-08-12T13:31:17;3;;;1;;
15504;SDS011;7854;52.184;5.942;2023-08-12T13:33:31;2;;;1;;
15504;SDS011;7854;52.184;5.942;2023-08-12T13:35:46;11;;;2;;
15504;SDS011;7854;52.184;5.942;2023-08-12T13:38:00;1;;;0;;
15504;SDS011;7854;52.184;5.942;2023-08-12T13:40:15;1;;;1;;
15504;SDS011;7854;52.184;5.942;2023-08-12T13:42:30;3;;;1;;
15504;SDS011;7854;52.184;5.942;2023-08-12T13:44:44;2;;;0;;
15504;SDS011;7854;52.184;5.942;2023-08-12T13:46:58;2;;;1;;
15504;SDS011;7854;52.184;5.942;2023-08-12T13:49:13;2;;;1;;
15504;SDS011;7854;52.184;5.942;2023-08-12T13:51:27;1;;;0;;
15504;SDS011;7854;52.184;5.942;2023-08-12T13:53:41;2;;;1;;
15504;SDS011;7854;52.184;5.942;2023-08-12T13:55:56;3;;;1;;
15504;SDS011;7854;52.184;5.942;2023-08-12T13:58:10;2;;;1;;
15504;SDS011;7854;52.184;5.942;2023-08-12T14:00:25;2;;;1;;
15504;SDS011;7854;52.184;5.942;2023-08-12T14:02:40;3;;;1;;
15504;SDS011;7854;52.184;5.942;2023-08-12T14:04:54;6;;;1;;
15504;SDS011;7854;52.184;5.942;2023-08-12T14:07:08;3;;;1;;
15504;SDS011;7854;52.184;5.942;2023-08-12T14:09:23;2;;;1;;
15504;SDS011;7854;52.184;5.942;2023-08-12T14:11:37;3;;;1;;
15504;SDS011;7854;52.184;5.942;2023-08-12T14:13:51;2;;;1;;
15504;SDS011;7854;52.184;5.942;2023-08-12T14:16:06;9;;;1;;
15504;SDS011;7854;52.184;5.942;2023-08-12T14:18:21;1;;;0;;
15504;SDS011;7854;52.184;5.942;2023-08-12T14:20:35;0;;;0;;
15504;SDS011;7854;52.184;5.942;2023-08-12T14:25:04;5;;;1;;
15504;SDS011;7854;52.184;5.942;2023-08-12T14:27:16;2;;;1;;
15504;SDS011;7854;52.184;5.942;2023-08-12T14:29:31;2;;;1;;
15504;SDS011;7854;52.184;5.942;2023-08-12T14:31:45;4;;;1;;
15504;SDS011;7854;52.184;5.942;2023-08-12T14:34:00;1;;;0;;
15504;SDS011;7854;52.184;5.942;2023-08-12T14:36:14;4;;;1;;
15504;SDS011;7854;52.184;5.942;2023-08-12T14:38:28;2;;;1;;
15504;SDS011;7854;52.184;5.942;2023-08-12T14:40:46;3;;;1;;
15504;SDS011;7854;52.184;5.942;2023-08-12T14:42:58;2;;;1;;
15504;SDS011;7854;52.184;5.942;2023-08-12T14:45:12;8;;;1;;
15504;SDS011;7854;52.184;5.942;2023-08-12T14:47:27;2;;;1;;
15504;SDS011;7854;52.184;5.942;2023-08-12T14:49:41;2;;;1;;
15504;SDS011;7854;52.184;5.942;2023-08-12T14:51:55;1;;;1;;
15504;SDS011;7854;52.184;5.942;2023-08-12T14:54:10;2;;;1;;
15504;SDS011;7854;52.184;5.942;2023-08-12T14:56:24;10;;;2;;
15504;SDS011;7854;52.184;5.942;2023-08-12T14:58:38;2;;;0;;
15504;SDS011;7854;52.184;5.942;2023-08-12T15:00:53;2;;;1;;
15504;SDS011;7854;52.184;5.942;2023-08-12T15:03:08;2;;;1;;
15504;SDS011;7854;52.184;5.942;2023-08-12T15:05:22;1;;;1;;